Time;durP1;ratioP1;P1;durP2;ratioP2;P2;SDS_P1;SDS_P2;PMS_P1;PMS_P2;Temp;Humidity;BMP_temperature;BMP_pressure;BME280_temperature;BME280_humidity;BME280_pressure;Samples;Min_cycle;Max_cycle;Signal;HPM_P1;HPM_P2
2022/03/27 00:00:52;;;;;;;23.52;14.80;;;;;;;;;;748075;79;26303;-77
2022/03/27 00:01:57;;;;;;;21.62;14.30;;;;;;;;;;747959;79;24658;-76
2022/03/27 00:03:00;;;;;;;21.70;14.07;;;;;;;;;;748296;79;26264;-76
2022/03/27 00:04:03;;;;;;;20.15;15.48;;;;;;;;;;748505;79;26259;-76
2022/03/27 00:07:10;;;;;;;24.00;14.93;;;;;;;;;;748219;79;26302;-78
2022/03/27 00:08:15;;;;;;;20.95;15.15;;;;;;;;;;757757;78;26259;-78
2022/03/27 00:09:18;;;;;;;20.15;14.40;;;;;;;;;;735866;80;26311;-76
2022/03/27 00:10:23;;;;;;;31.30;16.32;;;;;;;;;;736183;80;26295;-77
2022/03/27 00:11:27;;;;;;;21.62;15.83;;;;;;;;;;736322;80;26781;-78
2022/03/27 00:12:30;;;;;;;27.55;16.32;;;;;;;;;;736577;80;26275;-76
2022/03/27 00:13:33;;;;;;;25.57;16.65;;;;;;;;;;736594;80;26262;-76
2022/03/27 00:18:18;;;;;;;25.50;17.40;;;;;;;;;;750411;79;24610;-77
2022/03/27 00:19:24;;;;;;;27.60;18.50;;;;;;;;;;750722;79;26268;-77
2022/03/27 00:20:29;;;;;;;26.30;18.48;;;;;;;;;;749389;79;24300;-77
2022/03/27 00:21:31;;;;;;;28.47;17.67;;;;;;;;;;736834;79;26336;-77
2022/03/27 00:22:36;;;;;;;26.25;17.92;;;;;;;;;;736795;80;26264;-79
2022/03/27 00:23:40;;;;;;;24.80;17.98;;;;;;;;;;736889;80;26321;-77
2022/03/27 00:33:23;;;;;;;33.95;19.95;;;;;;;;;;802041;74;26583;-76
2022/03/27 00:37:51;;;;;;;29.98;18.12;;;;;;;;;;767554;77;26777;-77
2022/03/27 00:38:53;;;;;;;30.48;19.77;;;;;;;;;;767756;77;26255;-77
2022/03/27 00:39:56;;;;;;;28.17;19.90;;;;;;;;;;767776;77;26262;-77
2022/03/27 00:41:02;;;;;;;29.85;19.40;;;;;;;;;;767235;77;26330;-77
2022/03/27 00:42:06;;;;;;;30.37;20.20;;;;;;;;;;767110;77;26796;-77
2022/03/27 00:43:11;;;;;;;36.05;20.10;;;;;;;;;;767190;77;26728;-76
2022/03/27 00:44:15;;;;;;;27.75;19.20;;;;;;;;;;767264;77;26265;-76
2022/03/27 00:48:50;;;;;;;26.33;18.27;;;;;;;;;;816865;72;26134;-76
2022/03/27 00:49:53;;;;;;;30.30;19.55;;;;;;;;;;816530;72;26334;-77
2022/03/27 00:50:56;;;;;;;29.25;19.05;;;;;;;;;;816557;72;26210;-77
2022/03/27 00:52:01;;;;;;;29.00;19.55;;;;;;;;;;816582;72;26218;-77
2022/03/27 00:53:04;;;;;;;30.45;19.12;;;;;;;;;;816517;72;26218;-77
2022/03/27 00:54:07;;;;;;;27.30;18.37;;;;;;;;;;816528;72;26748;-77
2022/03/27 00:58:38;;;;;;;31.52;19.25;;;;;;;;;;817291;73;26190;-78
2022/03/27 00:59:40;;;;;;;30.95;19.52;;;;;;;;;;817144;73;26210;-77
2022/03/27 01:00:51;;;;;;;32.67;19.48;;;;;;;;;;817283;73;26246;-76
2022/03/27 01:01:55;;;;;;;29.90;19.30;;;;;;;;;;790074;75;26694;-77
2022/03/27 01:03:00;;;;;;;31.12;19.73;;;;;;;;;;815623;73;26233;-76
2022/03/27 01:04:05;;;;;;;25.30;18.52;;;;;;;;;;815626;73;26217;-76
2022/03/27 01:07:27;;;;;;;27.60;19.05;;;;;;;;;;823713;71;26126;-76
2022/03/27 01:09:53;;;;;;;28.67;19.65;;;;;;;;;;824174;72;26269;-79
2022/03/27 01:10:57;;;;;;;28.20;21.02;;;;;;;;;;823194;72;26187;-77
2022/03/27 01:12:08;;;;;;;24.55;18.42;;;;;;;;;;819082;72;26190;-78
2022/03/27 01:13:13;;;;;;;30.85;19.17;;;;;;;;;;822060;72;26256;-78
2022/03/27 01:21:38;;;;;;;30.75;17.80;;;;;;;;;;820943;72;26193;-77
2022/03/27 01:22:41;;;;;;;26.65;17.87;;;;;;;;;;821319;72;26714;-77
2022/03/27 01:23:46;;;;;;;25.35;17.60;;;;;;;;;;821516;72;26203;-78
2022/03/27 01:26:53;;;;;;;27.87;16.15;;;;;;;;;;801143;74;26242;-78
2022/03/27 01:27:57;;;;;;;23.00;16.60;;;;;;;;;;793247;75;26237;-79
2022/03/27 01:29:00;;;;;;;25.75;16.95;;;;;;;;;;793275;75;26386;-78
2022/03/27 01:30:04;;;;;;;25.68;17.32;;;;;;;;;;793241;75;26237;-77
2022/03/27 01:31:07;;;;;;;25.57;16.82;;;;;;;;;;793274;74;26238;-78
2022/03/27 01:32:24;;;;;;;21.68;16.70;;;;;;;;;;793310;75;26242;-78
2022/03/27 01:33:15;;;;;;;22.30;15.88;;;;;;;;;;785343;74;26245;-78
2022/03/27 01:37:31;;;;;;;26.70;15.45;;;;;;;;;;781503;75;26158;-75
2022/03/27 01:38:35;;;;;;;27.55;16.37;;;;;;;;;;784006;75;26300;-78
2022/03/27 01:39:38;;;;;;;20.77;15.65;;;;;;;;;;758496;78;26257;-76
2022/03/27 01:40:41;;;;;;;27.10;15.53;;;;;;;;;;790555;75;26309;-79
2022/03/27 01:41:44;;;;;;;22.10;16.20;;;;;;;;;;793374;75;26227;-77
2022/03/27 01:42:49;;;;;;;26.73;15.98;;;;;;;;;;779387;76;26650;-76
2022/03/27 01:43:51;;;;;;;24.52;15.80;;;;;;;;;;793530;74;26245;-77
2022/03/27 01:45:16;;;;;;;24.30;17.05;;;;;;;;;;793379;75;26238;-76
2022/03/27 01:46:19;;;;;;;26.42;16.60;;;;;;;;;;775401;76;26717;-76
2022/03/27 01:47:22;;;;;;;24.40;16.62;;;;;;;;;;781217;76;24565;-78
2022/03/27 01:48:25;;;;;;;26.07;16.90;;;;;;;;;;776864;76;26247;-77
2022/03/27 01:49:27;;;;;;;24.85;16.70;;;;;;;;;;788819;75;26233;-77
2022/03/27 01:50:31;;;;;;;24.67;15.98;;;;;;;;;;767794;77;26243;-77
2022/03/27 01:51:37;;;;;;;27.73;16.40;;;;;;;;;;789903;75;26333;-78
2022/03/27 01:52:43;;;;;;;28.17;16.30;;;;;;;;;;789862;75;26249;-78
2022/03/27 01:53:46;;;;;;;24.77;16.95;;;;;;;;;;789838;75;26726;-77
2022/03/27 01:58:18;;;;;;;26.77;16.85;;;;;;;;;;794075;74;26245;-78
2022/03/27 01:59:21;;;;;;;21.35;16.60;;;;;;;;;;793060;75;26688;-77
2022/03/27 02:00:24;;;;;;;24.52;15.55;;;;;;;;;;793198;75;26214;-76
2022/03/27 02:01:27;;;;;;;26.42;15.32;;;;;;;;;;793154;75;26320;-77
2022/03/27 02:02:32;;;;;;;29.95;17.17;;;;;;;;;;793238;74;26234;-78
2022/03/27 02:07:44;;;;;;;27.05;15.40;;;;;;;;;;801064;74;26323;-77
2022/03/27 02:08:47;;;;;;;29.05;17.30;;;;;;;;;;801339;74;26681;-76
2022/03/27 02:09:51;;;;;;;25.40;16.55;;;;;;;;;;801351;74;26227;-77
2022/03/27 02:10:55;;;;;;;29.27;17.00;;;;;;;;;;801318;74;26328;-76
2022/03/27 02:11:59;;;;;;;26.52;18.17;;;;;;;;;;801439;74;26224;-78
2022/03/27 02:13:01;;;;;;;24.67;17.00;;;;;;;;;;801296;74;26219;-78
2022/03/27 02:16:21;;;;;;;27.93;15.70;;;;;;;;;;801657;74;26164;-76
2022/03/27 02:17:25;;;;;;;22.45;14.95;;;;;;;;;;803702;74;26346;-77
2022/03/27 02:18:29;;;;;;;26.05;15.32;;;;;;;;;;803806;74;26283;-78
2022/03/27 02:19:33;;;;;;;27.15;16.62;;;;;;;;;;804118;74;26246;-77
2022/03/27 02:20:36;;;;;;;25.17;16.97;;;;;;;;;;805285;74;26292;-78
2022/03/27 02:21:41;;;;;;;24.12;17.07;;;;;;;;;;804861;74;26283;-78
2022/03/27 02:22:44;;;;;;;25.60;15.68;;;;;;;;;;803749;74;26749;-77
2022/03/27 02:23:47;;;;;;;26.60;17.45;;;;;;;;;;804579;74;26275;-76
2022/03/27 02:26:53;;;;;;;23.73;15.53;;;;;;;;;;781817;74;26759;-79
2022/03/27 02:27:57;;;;;;;28.40;16.12;;;;;;;;;;782235;76;26247;-76
2022/03/27 02:28:59;;;;;;;23.50;16.52;;;;;;;;;;782240;76;26234;-78
2022/03/27 02:30:03;;;;;;;25.02;15.88;;;;;;;;;;782225;76;26240;-76
2022/03/27 02:31:08;;;;;;;21.65;15.75;;;;;;;;;;782462;76;26697;-76
2022/03/27 02:32:12;;;;;;;21.62;15.55;;;;;;;;;;782663;76;26354;-76
2022/03/27 02:33:16;;;;;;;25.82;17.67;;;;;;;;;;782770;76;26248;-78
2022/03/27 02:36:43;;;;;;;30.40;16.95;;;;;;;;;;809378;71;26325;-77
2022/03/27 02:37:50;;;;;;;25.25;15.98;;;;;;;;;;814183;73;26267;-77
2022/03/27 02:38:53;;;;;;;21.02;15.60;;;;;;;;;;815200;73;26218;-77
2022/03/27 02:39:56;;;;;;;22.52;16.20;;;;;;;;;;815412;73;26187;-78
2022/03/27 02:40:59;;;;;;;24.25;16.50;;;;;;;;;;815422;73;26205;-76
2022/03/27 02:42:03;;;;;;;23.70;16.60;;;;;;;;;;815093;73;26248;-77
2022/03/27 02:43:12;;;;;;;22.90;15.75;;;;;;;;;;814141;73;26210;-78
2022/03/27 02:47:08;;;;;;;21.17;14.75;;;;;;;;;;764517;76;26305;-76
2022/03/27 02:48:16;;;;;;;22.73;16.02;;;;;;;;;;770557;77;26258;-78
2022/03/27 02:49:18;;;;;;;26.93;15.28;;;;;;;;;;767645;77;26243;-79
2022/03/27 02:50:31;;;;;;;;;;;;;;;;;;;;;
2022/03/27 02:58:17;;;;;;;22.27;13.68;;;;;;;;;;752187;78;26285;-77
2022/03/27 02:59:22;;;;;;;19.48;14.15;;;;;;;;;;752166;79;26288;-77
2022/03/27 03:00:25;;;;;;;22.35;14.87;;;;;;;;;;752261;79;26280;-76
2022/03/27 03:01:29;;;;;;;21.48;14.15;;;;;;;;;;752186;79;26381;-78
2022/03/27 03:02:34;;;;;;;24.23;14.90;;;;;;;;;;752242;79;26758;-78
2022/03/27 03:03:38;;;;;;;25.43;14.75;;;;;;;;;;757268;77;26280;-77
2022/03/27 03:06:39;;;;;;;20.72;13.80;;;;;;;;;;765222;77;26228;-76
2022/03/27 03:07:42;;;;;;;22.52;15.25;;;;;;;;;;765146;77;26314;-77
2022/03/27 03:08:46;;;;;;;25.62;15.13;;;;;;;;;;765133;77;26255;-76
2022/03/27 03:09:49;;;;;;;23.90;14.80;;;;;;;;;;765165;77;26310;-78
2022/03/27 03:10:51;;;;;;;21.35;14.25;;;;;;;;;;765133;77;26318;-76
2022/03/27 03:11:56;;;;;;;20.80;14.18;;;;;;;;;;770013;77;26259;-77
2022/03/27 03:13:00;;;;;;;22.98;14.75;;;;;;;;;;769919;77;26736;-77
2022/03/27 03:16:37;;;;;;;20.85;14.07;;;;;;;;;;754657;78;26294;-76
2022/03/27 03:17:40;;;;;;;24.07;15.00;;;;;;;;;;754530;78;26272;-76
2022/03/27 03:18:43;;;;;;;24.10;14.03;;;;;;;;;;754616;78;26326;-76
2022/03/27 03:19:47;;;;;;;19.98;13.15;;;;;;;;;;754626;78;26736;-77
2022/03/27 03:20:53;;;;;;;20.17;14.00;;;;;;;;;;754643;78;26768;-77
2022/03/27 03:21:56;;;;;;;19.52;13.60;;;;;;;;;;754612;78;26274;-76
2022/03/27 03:23:01;;;;;;;19.62;13.22;;;;;;;;;;754614;78;26263;-77
2022/03/27 03:26:09;;;;;;;20.95;12.65;;;;;;;;;;754609;78;26240;-76
2022/03/27 03:27:12;;;;;;;20.30;13.20;;;;;;;;;;757175;78;26263;-77
2022/03/27 03:28:15;;;;;;;24.32;13.55;;;;;;;;;;757211;78;26693;-76
2022/03/27 03:29:18;;;;;;;19.55;13.30;;;;;;;;;;757253;78;26254;-75
2022/03/27 03:30:24;;;;;;;20.05;14.18;;;;;;;;;;757163;78;26259;-79
2022/03/27 03:31:28;;;;;;;19.90;12.78;;;;;;;;;;757875;78;26394;-77
2022/03/27 03:32:34;;;;;;;19.55;12.90;;;;;;;;;;757315;77;26727;-77
2022/03/27 03:35:41;;;;;;;20.60;12.58;;;;;;;;;;755426;78;26268;-78
2022/03/27 03:36:45;;;;;;;17.48;12.75;;;;;;;;;;758653;78;26242;-76
2022/03/27 03:47:27;;;;;;;19.40;12.95;;;;;;;;;;781997;75;26241;-77
2022/03/27 03:48:33;;;;;;;17.07;13.35;;;;;;;;;;780736;76;26245;-76
2022/03/27 03:49:36;;;;;;;24.85;13.00;;;;;;;;;;780221;76;26250;-78
2022/03/27 03:50:39;;;;;;;20.35;13.48;;;;;;;;;;780186;76;26821;-76
2022/03/27 03:51:44;;;;;;;20.95;12.50;;;;;;;;;;780203;76;26246;-76
2022/03/27 03:52:47;;;;;;;25.65;13.70;;;;;;;;;;780382;76;26248;-79
2022/03/27 03:57:18;;;;;;;18.98;13.55;;;;;;;;;;742560;80;26218;-77
2022/03/27 03:58:21;;;;;;;19.42;13.53;;;;;;;;;;742587;80;26742;-76
2022/03/27 03:59:28;;;;;;;22.85;13.50;;;;;;;;;;742299;80;26273;-76
2022/03/27 04:00:32;;;;;;;19.45;14.10;;;;;;;;;;742437;80;26281;-78
2022/03/27 04:01:36;;;;;;;20.92;12.68;;;;;;;;;;743988;80;26238;-79
2022/03/27 04:02:39;;;;;;;18.55;12.88;;;;;;;;;;744082;80;26277;-78
2022/03/27 04:05:55;;;;;;;18.80;13.15;;;;;;;;;;767008;77;26744;-76
2022/03/27 04:07:00;;;;;;;17.62;12.07;;;;;;;;;;767327;77;26275;-77
2022/03/27 04:08:03;;;;;;;21.68;13.00;;;;;;;;;;767366;77;26308;-79
2022/03/27 04:09:06;;;;;;;19.98;13.50;;;;;;;;;;767443;77;26266;-77
2022/03/27 04:10:09;;;;;;;18.20;12.95;;;;;;;;;;767394;77;26727;-78
2022/03/27 04:11:17;;;;;;;18.35;13.20;;;;;;;;;;768202;77;26340;-77
2022/03/27 04:12:19;;;;;;;18.45;13.32;;;;;;;;;;768544;77;26308;-75
2022/03/27 04:17:03;;;;;;;17.67;12.43;;;;;;;;;;743777;80;26808;-77
2022/03/27 04:18:07;;;;;;;21.45;13.45;;;;;;;;;;743670;80;26280;-78
2022/03/27 04:19:13;;;;;;;16.35;12.68;;;;;;;;;;744993;80;26273;-78
2022/03/27 04:20:17;;;;;;;22.02;13.28;;;;;;;;;;745004;80;26327;-77
2022/03/27 04:21:20;;;;;;;20.08;13.75;;;;;;;;;;743636;80;26729;-77
2022/03/27 04:22:23;;;;;;;18.32;13.70;;;;;;;;;;743647;80;26281;-78
2022/03/27 04:30:11;;;;;;;21.35;14.40;;;;;;;;;;795261;72;26316;-74
2022/03/27 04:31:13;;;;;;;21.45;13.58;;;;;;;;;;757045;78;26308;-75
2022/03/27 04:32:17;;;;;;;19.25;12.90;;;;;;;;;;757441;78;26269;-76
2022/03/27 04:35:38;;;;;;;17.23;12.90;;;;;;;;;;757952;78;26288;-77
2022/03/27 04:36:44;;;;;;;20.25;12.82;;;;;;;;;;758668;78;26739;-76
2022/03/27 04:37:47;;;;;;;22.93;13.70;;;;;;;;;;758786;78;26352;-75
2022/03/27 04:38:50;;;;;;;24.95;14.80;;;;;;;;;;759204;78;26233;-75
2022/03/27 04:39:54;;;;;;;20.97;14.10;;;;;;;;;;748886;79;26308;-77
2022/03/27 04:40:57;;;;;;;24.20;13.60;;;;;;;;;;748671;77;26255;-74
2022/03/27 04:42:02;;;;;;;19.30;13.22;;;;;;;;;;763541;77;26302;-76
2022/03/27 04:43:05;;;;;;;18.75;13.90;;;;;;;;;;758581;78;26311;-76
2022/03/27 04:50:00;;;;;;;19.32;14.03;;;;;;;;;;774897;76;26170;-76
2022/03/27 04:51:04;;;;;;;19.65;14.25;;;;;;;;;;775109;76;26306;-78
2022/03/27 04:52:08;;;;;;;20.68;14.03;;;;;;;;;;775708;76;26734;-77
2022/03/27 04:56:39;;;;;;;20.40;13.70;;;;;;;;;;795799;73;26255;-79
2022/03/27 04:57:43;;;;;;;22.85;14.93;;;;;;;;;;807018;73;26223;-77
2022/03/27 04:58:52;;;;;;;19.95;16.15;;;;;;;;;;807322;73;26725;-78
2022/03/27 04:59:56;;;;;;;19.37;15.30;;;;;;;;;;807217;73;26225;-75
2022/03/27 05:01:03;;;;;;;20.50;15.60;;;;;;;;;;807066;73;26222;-77
2022/03/27 05:02:10;;;;;;;23.90;16.27;;;;;;;;;;806882;73;26226;-78
2022/03/27 05:07:44;;;;;;;22.42;15.80;;;;;;;;;;773688;73;26279;-76
2022/03/27 05:08:50;;;;;;;20.95;16.05;;;;;;;;;;765460;77;26248;-75
2022/03/27 05:09:58;;;;;;;25.00;15.78;;;;;;;;;;765490;77;26319;-77
2022/03/27 05:11:06;;;;;;;22.82;16.80;;;;;;;;;;765316;77;26257;-77
2022/03/27 05:12:10;;;;;;;24.63;16.62;;;;;;;;;;765766;77;26259;-77
2022/03/27 05:16:39;;;;;;;19.10;15.15;;;;;;;;;;774048;75;26687;-77
2022/03/27 05:17:56;;;;;;;22.00;16.60;;;;;;;;;;777519;76;26300;-78
2022/03/27 05:19:07;;;;;;;24.25;16.42;;;;;;;;;;777622;76;26243;-79
2022/03/27 05:20:10;;;;;;;27.75;16.87;;;;;;;;;;777210;76;26687;-76
2022/03/27 05:21:13;;;;;;;24.07;15.65;;;;;;;;;;777196;76;26664;-77
2022/03/27 05:22:16;;;;;;;23.83;16.40;;;;;;;;;;779405;76;26296;-76
2022/03/27 05:25:06;;;;;;;23.02;16.05;;;;;;;;;;779539;76;26188;-78
2022/03/27 05:26:09;;;;;;;22.37;16.73;;;;;;;;;;779509;76;26304;-78
2022/03/27 05:27:15;;;;;;;25.32;16.10;;;;;;;;;;779932;76;26692;-76
2022/03/27 05:28:19;;;;;;;22.30;15.60;;;;;;;;;;779430;76;26248;-76
2022/03/27 05:29:24;;;;;;;22.73;16.60;;;;;;;;;;779378;76;26714;-75
2022/03/27 05:30:32;;;;;;;24.20;16.87;;;;;;;;;;780600;76;26231;-78
2022/03/27 05:31:35;;;;;;;24.00;15.68;;;;;;;;;;780698;76;26307;-75
2022/03/27 05:34:42;;;;;;;25.02;16.23;;;;;;;;;;779761;76;26716;-75
2022/03/27 05:35:45;;;;;;;18.48;15.32;;;;;;;;;;787557;75;26231;-76
2022/03/27 05:36:48;;;;;;;22.62;16.60;;;;;;;;;;787143;75;26303;-76
2022/03/27 05:37:54;;;;;;;36.15;23.05;;;;;;;;;;787059;75;26291;-75
2022/03/27 05:38:57;;;;;;;37.45;25.32;;;;;;;;;;787192;75;26230;-78
2022/03/27 05:40:04;;;;;;;36.83;25.75;;;;;;;;;;786920;75;26746;-74
2022/03/27 05:41:10;;;;;;;31.77;20.95;;;;;;;;;;787081;75;26281;-78
2022/03/27 05:42:12;;;;;;;24.92;17.35;;;;;;;;;;788562;75;26284;-77
2022/03/27 05:49:05;;;;;;;23.77;16.95;;;;;;;;;;770641;77;26283;-76
2022/03/27 05:50:15;;;;;;;23.47;16.87;;;;;;;;;;767865;77;26735;-76
2022/03/27 05:51:20;;;;;;;27.82;16.97;;;;;;;;;;750076;79;26326;-77
2022/03/27 05:57:06;;;;;;;25.12;15.35;;;;;;;;;;779793;76;26185;-77
2022/03/27 05:58:11;;;;;;;21.70;15.10;;;;;;;;;;781171;75;26329;-76
2022/03/27 06:06:14;;;;;;;22.60;15.65;;;;;;;;;;741879;79;26329;-76
2022/03/27 06:07:20;;;;;;;22.00;15.83;;;;;;;;;;756138;78;26332;-76
2022/03/27 06:08:27;;;;;;;24.27;15.98;;;;;;;;;;756292;78;26246;-76
2022/03/27 06:09:33;;;;;;;23.15;15.75;;;;;;;;;;756324;78;26246;-75
2022/03/27 06:10:39;;;;;;;19.65;15.18;;;;;;;;;;756409;78;26342;-75
2022/03/27 06:11:46;;;;;;;19.42;14.75;;;;;;;;;;756229;78;26268;-75
2022/03/27 06:20:17;;;;;;;21.05;14.70;;;;;;;;;;782973;73;26250;-79
2022/03/27 06:21:28;;;;;;;18.45;14.90;;;;;;;;;;783960;75;26230;-78
2022/03/27 06:35:53;;;;;;;22.75;16.20;;;;;;;;;;794720;73;26245;-67
2022/03/27 06:36:56;;;;;;;21.60;15.70;;;;;;;;;;794777;74;26288;-66
2022/03/27 06:37:59;;;;;;;23.57;16.10;;;;;;;;;;794282;74;26295;-66
2022/03/27 06:39:06;;;;;;;26.65;17.07;;;;;;;;;;794184;74;26244;-68
2022/03/27 06:40:10;;;;;;;19.52;15.88;;;;;;;;;;794219;74;26744;-67
2022/03/27 06:41:14;;;;;;;23.65;16.70;;;;;;;;;;794595;74;26241;-72
2022/03/27 06:54:55;;;;;;;22.90;16.60;;;;;;;;;;767120;77;26257;-67
2022/03/27 06:55:58;;;;;;;23.95;17.98;;;;;;;;;;767280;77;26339;-68
2022/03/27 06:57:01;;;;;;;24.57;18.02;;;;;;;;;;767169;77;26274;-68
2022/03/27 06:58:05;;;;;;;23.75;18.55;;;;;;;;;;767095;77;26262;-66
2022/03/27 06:59:09;;;;;;;23.70;17.77;;;;;;;;;;767191;77;26266;-66
2022/03/27 07:03:20;;;;;;;22.67;17.40;;;;;;;;;;767503;77;26277;-66
2022/03/27 07:04:25;;;;;;;26.02;18.50;;;;;;;;;;781036;76;26721;-68
2022/03/27 07:05:30;;;;;;;26.90;18.20;;;;;;;;;;780984;76;26249;-68
2022/03/27 07:06:34;;;;;;;23.77;17.65;;;;;;;;;;779956;76;26257;-68
2022/03/27 07:07:41;;;;;;;24.37;18.73;;;;;;;;;;780930;76;26249;-67
2022/03/27 07:08:44;;;;;;;21.62;18.48;;;;;;;;;;766630;77;26776;-68
2022/03/27 07:09:47;;;;;;;21.93;18.60;;;;;;;;;;766191;77;26713;-69
2022/03/27 07:10:50;;;;;;;22.30;18.85;;;;;;;;;;766238;77;26263;-69
2022/03/27 07:15:24;;;;;;;24.05;19.48;;;;;;;;;;779450;76;26649;-69
2022/03/27 07:16:30;;;;;;;22.30;17.95;;;;;;;;;;779398;76;26237;-70
2022/03/27 07:17:35;;;;;;;25.40;19.55;;;;;;;;;;779571;76;26303;-68
2022/03/27 07:18:40;;;;;;;25.85;20.50;;;;;;;;;;778574;76;26237;-68
2022/03/27 07:19:42;;;;;;;23.75;19.77;;;;;;;;;;779578;76;26294;-68
2022/03/27 07:20:52;;;;;;;30.30;19.07;;;;;;;;;;779519;76;26232;-68
2022/03/27 07:23:48;;;;;;;28.05;19.80;;;;;;;;;;765602;77;26322;-66
2022/03/27 07:24:52;;;;;;;22.95;19.75;;;;;;;;;;751724;79;26321;-70
2022/03/27 07:25:56;;;;;;;28.17;21.27;;;;;;;;;;764980;77;26771;-68
2022/03/27 07:26:59;;;;;;;24.63;20.45;;;;;;;;;;765386;77;26235;-67
2022/03/27 07:28:03;;;;;;;23.92;20.57;;;;;;;;;;765505;77;26305;-67
2022/03/27 07:29:10;;;;;;;28.23;21.70;;;;;;;;;;765365;77;26294;-68
2022/03/27 07:30:12;;;;;;;32.08;22.22;;;;;;;;;;765636;77;26247;-67
2022/03/27 07:31:17;;;;;;;27.13;21.75;;;;;;;;;;765471;77;26255;-68
2022/03/27 07:37:49;;;;;;;24.82;20.20;;;;;;;;;;791756;75;26645;-69
2022/03/27 07:38:53;;;;;;;26.30;21.12;;;;;;;;;;791549;75;26192;-68
2022/03/27 07:39:56;;;;;;;30.43;21.00;;;;;;;;;;791536;74;26677;-67
2022/03/27 07:41:04;;;;;;;26.52;21.90;;;;;;;;;;777345;76;26225;-67
2022/03/27 07:47:18;;;;;;;26.90;21.90;;;;;;;;;;789897;75;26452;-67
2022/03/27 07:48:21;;;;;;;27.20;21.90;;;;;;;;;;789857;75;26952;-69
2022/03/27 07:49:24;;;;;;;26.97;21.13;;;;;;;;;;789804;75;26395;-68
2022/03/27 07:50:28;;;;;;;28.37;22.20;;;;;;;;;;792275;74;26553;-68
2022/03/27 07:51:30;;;;;;;28.00;21.53;;;;;;;;;;794867;74;26223;-67
2022/03/27 07:54:35;;;;;;;27.50;21.90;;;;;;;;;;775618;76;26356;-68
2022/03/27 07:55:39;;;;;;;26.77;21.97;;;;;;;;;;764223;77;26542;-68
2022/03/27 07:56:41;;;;;;;22.50;19.87;;;;;;;;;;751869;77;26512;-68
2022/03/27 07:57:44;;;;;;;26.67;19.60;;;;;;;;;;782219;76;26521;-67
2022/03/27 07:58:52;;;;;;;25.67;20.00;;;;;;;;;;782050;76;26551;-67
2022/03/27 07:59:54;;;;;;;24.43;19.37;;;;;;;;;;763500;77;26489;-67
2022/03/27 08:00:57;;;;;;;27.50;19.90;;;;;;;;;;782072;74;26479;-68
2022/03/27 08:04:34;;;;;;;17.30;13.83;;;;;;;;;;782433;76;26459;-67
2022/03/27 08:05:38;;;;;;;21.25;13.80;;;;;;;;;;744796;79;28907;-68
2022/03/27 08:06:41;;;;;;;18.50;13.33;;;;;;;;;;748891;77;26414;-68
2022/03/27 08:07:45;;;;;;;16.43;12.70;;;;;;;;;;764499;77;26498;-67
2022/03/27 08:08:49;;;;;;;16.50;13.77;;;;;;;;;;764630;77;26934;-68
2022/03/27 08:09:52;;;;;;;20.80;13.30;;;;;;;;;;764417;77;26433;-67
2022/03/27 08:10:56;;;;;;;17.67;13.10;;;;;;;;;;764781;77;26358;-68
2022/03/27 08:13:56;;;;;;;17.50;13.23;;;;;;;;;;767943;77;26415;-69
2022/03/27 08:14:59;;;;;;;15.13;13.40;;;;;;;;;;767733;77;26430;-68
2022/03/27 08:16:02;;;;;;;14.60;13.10;;;;;;;;;;767728;77;26551;-67
2022/03/27 08:17:08;;;;;;;15.10;12.70;;;;;;;;;;767804;77;27023;-67
2022/03/27 08:18:13;;;;;;;20.73;13.47;;;;;;;;;;768057;77;26697;-68
2022/03/27 08:19:19;;;;;;;15.23;13.13;;;;;;;;;;768223;77;26939;-68
2022/03/27 08:27:31;;;;;;;16.33;13.03;;;;;;;;;;772804;77;26263;-68
2022/03/27 08:28:34;;;;;;;17.00;13.80;;;;;;;;;;772259;77;26534;-68
2022/03/27 08:29:38;;;;;;;20.50;13.77;;;;;;;;;;774347;77;26390;-70
2022/03/27 08:30:42;;;;;;;15.20;13.43;;;;;;;;;;774176;77;26404;-71
2022/03/27 08:32:23;;;;;;;17.20;13.60;;;;;;;;;;774149;77;26569;-66
2022/03/27 08:33:27;;;;;;;17.00;13.13;;;;;;;;;;771730;77;26551;-67
2022/03/27 08:34:31;;;;;;;14.93;12.87;;;;;;;;;;771657;77;26504;-67
2022/03/27 08:35:34;;;;;;;15.43;13.83;;;;;;;;;;771670;77;26554;-68
2022/03/27 08:36:37;;;;;;;15.43;13.83;;;;;;;;;;771729;77;26688;-67
2022/03/27 08:37:40;;;;;;;17.93;14.17;;;;;;;;;;771730;77;27017;-67
2022/03/27 08:38:44;;;;;;;17.90;14.30;;;;;;;27.64;100.00;123554.15;771709;77;26703;-66
2022/03/27 08:39:48;;;;;;;19.50;14.80;;;;;;;;;;771825;76;26681;-68
2022/03/27 08:40:52;;;;;;;18.80;15.30;;;;;;;;;;771733;77;26650;-68
2022/03/27 08:41:55;;;;;;;16.93;14.57;;;;;;;;;;771703;77;26789;-68
2022/03/27 08:42:58;;;;;;;18.67;13.93;;;;;;;;;;771845;77;26629;-68
2022/03/27 08:44:02;;;;;;;18.57;13.93;;;;;;;;;;771731;77;26893;-70
2022/03/27 08:45:05;;;;;;;15.83;14.13;;;;;;;;;;771725;77;27424;-67
2022/03/27 08:46:09;;;;;;;17.30;14.40;;;;;;;;;;771897;77;26837;-67
2022/03/27 08:47:19;;;;;;;18.10;13.70;;;;;;;;;;772173;77;26846;-68
2022/03/27 08:48:24;;;;;;;15.10;12.57;;;;;;;;;;772179;77;27012;-67
2022/03/27 08:49:43;;;;;;;16.83;13.97;;;;;;;;;;772217;77;26770;-67
2022/03/27 08:50:47;;;;;;;16.70;13.77;;;;;;;;;;773250;77;26799;-68
2022/03/27 08:52:21;;;;;;;16.60;13.17;;;;;;;;;;771277;77;26886;-71
2022/03/27 08:53:27;;;;;;;15.40;13.40;;;;;;;;;;778065;76;26823;-67
2022/03/27 08:54:31;;;;;;;16.20;13.73;;;;;;;;;;777305;76;26971;-68
2022/03/27 08:55:41;;;;;;;14.97;12.20;;;;;;;;;;777638;76;26860;-68
2022/03/27 08:56:46;;;;;;;16.60;13.77;;;;;;;;;;778046;76;27008;-68
2022/03/27 08:58:00;;;;;;;17.67;14.03;;;;;;;;;;778197;76;26940;-68
2022/03/27 08:59:04;;;;;;;18.80;13.40;;;;;;;;;;778093;76;27074;-67
2022/03/27 09:00:07;;;;;;;20.50;15.00;;;;;;;;;;777997;76;27423;-68
2022/03/27 09:01:11;;;;;;;17.60;13.30;;;;;;;;;;778074;76;27000;-69
2022/03/27 09:04:11;;;;;;;16.03;13.93;;;;;;;;;;752305;78;26964;-67
2022/03/27 09:05:14;;;;;;;18.70;14.50;;;;;;;;;;752400;79;26960;-69
2022/03/27 09:06:17;;;;;;;25.77;14.73;;;;;;;;;;752501;79;27435;-68
2022/03/27 09:07:20;;;;;;;19.03;13.37;;;;;;;;;;752531;79;27416;-67
2022/03/27 09:14:15;;;;;;;17.53;14.67;;;;;;;;;;771482;77;26941;-69
2022/03/27 09:15:23;;;;;;;16.00;13.97;;;;;;;;;;757320;78;27015;-68
2022/03/27 09:16:26;;;;;;;17.17;13.57;;;;;;;;;;755540;78;26971;-69
2022/03/27 09:17:29;;;;;;;16.50;13.73;;;;;;;;;;759022;78;26970;-67
2022/03/27 09:18:47;;;;;;;15.73;13.90;;;;;;;;;;762961;76;27032;-68
2022/03/27 09:19:52;;;;;;;17.13;13.90;;;;;;;;;;773300;76;27055;-68
2022/03/27 09:20:55;;;;;;;19.93;14.87;;;;;;;;;;756524;78;26969;-67
2022/03/27 09:24:02;;;;;;;15.33;13.40;;;;;;;;;;764588;77;26947;-68
2022/03/27 09:25:05;;;;;;;17.20;14.60;;;;;;;;;;766283;77;26959;-68
2022/03/27 09:26:11;;;;;;;19.17;15.77;;;;;;;;;;765481;77;27033;-69
2022/03/27 09:27:14;;;;;;;18.57;14.40;;;;;;;;;;765419;77;26959;-68
2022/03/27 09:28:37;;;;;;;19.73;15.43;;;;;;;;;;761188;77;27470;-67
2022/03/27 09:30:06;;;;;;;18.17;14.70;;;;;;;;;;746996;79;27033;-68
2022/03/27 09:35:05;;;;;;;21.70;15.23;;;;;;;;;;774544;76;26899;-68
2022/03/27 09:36:09;;;;;;;21.83;15.67;;;;;;;;;;777699;76;27298;-67
2022/03/27 09:37:19;;;;;;;21.73;16.10;;;;;;;;;;777704;76;27431;-68
2022/03/27 09:38:23;;;;;;;17.70;14.27;;;;;;;;;;774948;76;26927;-68
2022/03/27 09:39:26;;;;;;;24.63;15.23;;;;;;;;;;781193;76;27027;-68
2022/03/27 09:40:34;;;;;;;20.53;15.30;;;;;;;;;;781643;76;26912;-67
2022/03/27 09:47:04;;;;;;;19.40;13.87;;;;;;;;;;734979;81;27051;-71
2022/03/27 09:48:08;;;;;;;19.60;14.73;;;;;;;;;;736233;81;27031;-69
2022/03/27 09:49:11;;;;;;;21.73;14.00;;;;;;;;;;721231;82;27068;-69
2022/03/27 09:50:15;;;;;;;16.43;14.03;;;;;;;;;;734903;80;26973;-70
2022/03/27 09:53:35;;;;;;;19.47;13.30;;;;;;;;;;749973;79;26871;-70
2022/03/27 09:54:55;;;;;;;16.37;13.80;;;;;;;;;;749822;79;26982;-70
2022/03/27 09:58:15;;;;;;;15.37;13.33;;;;;;;;;;748748;79;27409;-69
2022/03/27 09:59:28;;;;;;;17.50;13.87;;;;;;;;;;760949;77;26948;-68
2022/03/27 10:00:31;;;;;;;17.27;13.77;;;;;;;;;;773072;77;27466;-69
2022/03/27 10:03:32;;;;;;;18.40;13.57;;;;;;;;;;773537;77;27451;-68
2022/03/27 10:04:39;;;;;;;14.00;12.60;;;;;;;;;;773189;77;26948;-69
2022/03/27 10:05:42;;;;;;;16.37;12.60;;;;;;;;;;773571;76;26967;-69
2022/03/27 10:06:45;;;;;;;15.17;12.07;;;;;;;;;;773115;77;26940;-71
2022/03/27 10:07:50;;;;;;;16.27;13.07;;;;;;;;;;772974;77;27442;-68
2022/03/27 10:08:55;;;;;;;16.60;14.17;;;;;;;;;;773737;76;27439;-68
2022/03/27 10:10:07;;;;;;;15.30;13.70;;;;;;;;;;774124;77;27456;-69
2022/03/27 10:13:33;;;;;;;15.80;12.87;;;;;;;;;;781375;76;26927;-68
2022/03/27 10:14:34;;;;;;;15.00;12.10;;;;;;;;;;759027;78;27028;-68
2022/03/27 10:15:37;;;;;;;13.83;11.60;;;;;;;;;;759700;78;27408;-68
2022/03/27 10:16:49;;;;;;;13.50;11.20;;;;;;;;;;739362;80;26976;-68
2022/03/27 10:18:04;;;;;;;13.10;11.70;;;;;;;;;;748392;78;27036;-68